Time;durP1;ratioP1;P1;durP2;ratioP2;P2;SDS_P1;SDS_P2;PMS_P1;PMS_P2;Temp;Humidity;BMP_temperature;BMP_pressure;BME280_temperature;BME280_humidity;BME280_pressure;Samples;Min_cycle;Max_cycle;Signal;HPM_P1;HPM_P2
2021/07/16 00:01:39;;;;;;;17.45;14.57;;;;;;;25.14;72.00;101420.16;5983503;29;20506;-75
2021/07/16 00:04:45;;;;;;;16.17;14.35;;;;;;;25.00;72.57;101419.19;5984677;29;20222;-76
2021/07/16 00:07:49;;;;;;;16.05;14.35;;;;;;;25.02;72.82;101439.28;5983673;29;20483;-76
2021/07/16 00:10:53;;;;;;;15.93;14.38;;;;;;;24.88;73.86;101431.63;5984697;29;20193;-75
2021/07/16 00:13:57;;;;;;;16.08;14.55;;;;;;;24.77;74.41;101427.28;5983586;29;20197;-76
2021/07/16 00:17:02;;;;;;;16.58;14.93;;;;;;;24.65;75.31;101435.22;5983221;29;20266;-75
2021/07/16 00:20:09;;;;;;;16.58;14.68;;;;;;;24.71;75.33;101448.00;5984412;29;20193;-76
2021/07/16 00:23:13;;;;;;;16.88;15.07;;;;;;;24.60;76.36;101442.84;5983373;29;20193;-75
2021/07/16 00:26:18;;;;;;;16.17;14.57;;;;;;;24.58;76.71;101461.81;5984460;29;20217;-75
2021/07/16 00:29:24;;;;;;;18.17;15.15;;;;;;;24.58;77.21;101471.00;5984106;29;20193;-76
2021/07/16 00:32:29;;;;;;;16.85;14.00;;;;;;;24.48;78.34;101475.84;5984178;29;20232;-77
2021/07/16 00:35:34;;;;;;;15.23;13.75;;;;;;;24.31;80.08;101478.25;5984022;29;20200;-76
2021/07/16 00:38:40;;;;;;;15.52;13.93;;;;;;;24.14;81.79;101478.69;5983685;29;20256;-76
2021/07/16 00:41:44;;;;;;;15.23;13.73;;;;;;;24.18;81.91;101485.34;5983044;29;20250;-75
2021/07/16 00:44:48;;;;;;;14.90;13.45;;;;;;;24.24;81.72;101490.56;5982487;29;20248;-76
2021/07/16 00:47:54;;;;;;;15.10;13.25;;;;;;;24.11;82.67;101496.81;5983431;29;20200;-75
2021/07/16 00:50:59;;;;;;;13.93;12.60;;;;;;;24.03;83.22;101496.59;5982766;29;20225;-76
2021/07/16 00:54:04;;;;;;;14.05;12.52;;;;;;;24.11;82.63;101501.59;5983410;29;20201;-76
2021/07/16 00:57:09;;;;;;;13.57;12.25;;;;;;;24.09;82.95;101509.38;5982707;29;20245;-75
2021/07/16 01:00:15;;;;;;;14.13;12.23;;;;;;;24.05;82.74;101516.66;5983410;29;20235;-76
2021/07/16 01:03:20;;;;;;;12.45;10.15;;;;;;;23.93;81.87;101511.44;5994643;24;20240;-75
2021/07/16 01:06:25;;;;;;;11.60;10.48;;;;;;;23.89;81.63;101527.06;5982078;29;20542;-75
2021/07/16 01:09:29;;;;;;;11.52;10.38;;;;;;;23.94;80.97;101531.78;5983152;29;20193;-75
2021/07/16 01:12:34;;;;;;;10.57;9.43;;;;;;;23.95;80.38;101534.28;5982602;29;20201;-75
2021/07/16 01:15:38;;;;;;;10.48;7.85;;;;;;;23.77;78.10;101545.25;5983097;29;20197;-75
2021/07/16 01:18:42;;;;;;;9.40;6.97;;;;;;;23.79;77.69;101549.44;5981746;29;20196;-74
2021/07/16 01:21:51;;;;;;;9.23;6.60;;;;;;;23.78;77.25;101569.22;5981841;29;20193;-74
2021/07/16 01:25:00;;;;;;;6.50;5.97;;;;;;;23.68;76.65;101557.00;5981061;29;20506;-74
2021/07/16 01:28:04;;;;;;;6.57;5.95;;;;;;;23.77;76.42;101567.56;5981679;29;20426;-76
2021/07/16 01:31:09;;;;;;;6.85;5.88;;;;;;;23.77;76.37;101559.19;5981556;29;20416;-74
2021/07/16 01:34:14;;;;;;;5.78;5.47;;;;;;;23.67;76.40;101580.44;5982417;29;20234;-75
2021/07/16 01:37:18;;;;;;;5.70;5.13;;;;;;;23.46;76.04;101584.41;5981484;29;20423;-74
2021/07/16 01:40:26;;;;;;;3.90;3.70;;;;;;;23.13;75.77;101593.41;5982397;29;20199;-75
2021/07/16 01:43:30;;;;;;;3.60;3.30;;;;;;;23.06;75.81;101590.06;5982272;29;20193;-74
2021/07/16 01:46:34;;;;;;;4.10;3.30;;;;;;;22.96;75.74;101595.66;5981208;29;20280;-75
2021/07/16 01:49:39;;;;;;;5.38;2.92;;;;;;;22.79;76.35;101607.09;5981329;29;20499;-75
2021/07/16 01:52:43;;;;;;;3.42;3.22;;;;;;;22.82;76.30;101614.06;5981189;29;20250;-75
2021/07/16 01:55:49;;;;;;;2.97;2.88;;;;;;;22.73;76.77;101618.50;5982044;29;20265;-75
2021/07/16 01:58:53;;;;;;;3.55;3.22;;;;;;;22.59;76.56;101611.81;5982301;29;20209;-75
2021/07/16 02:01:57;;;;;;;3.17;2.97;;;;;;;22.64;76.06;101617.41;5982065;29;20237;-75
2021/07/16 02:05:03;;;;;;;2.78;2.55;;;;;;;22.71;75.59;101623.50;5982093;29;20227;-75
2021/07/16 02:08:13;;;;;;;5.45;2.70;;;;;;;22.61;74.96;101615.16;5981812;29;20193;-75
2021/07/16 02:11:21;;;;;;;2.58;2.38;;;;;;;22.56;75.00;101629.88;5982088;29;20197;-75
2021/07/16 02:14:25;;;;;;;3.05;2.50;;;;;;;22.55;74.52;101628.19;5980669;29;20265;-75
2021/07/16 02:17:30;;;;;;;2.45;2.40;;;;;;;22.58;74.37;101643.50;5981876;29;20197;-75
2021/07/16 02:20:36;;;;;;;5.35;2.40;;;;;;;22.49;73.69;101639.63;5981909;29;20231;-75
2021/07/16 02:23:40;;;;;;;2.20;2.13;;;;;;;22.47;73.58;101652.97;5979096;29;20212;-75
2021/07/16 02:26:45;;;;;;;2.53;2.40;;;;;;;22.33;73.44;101653.50;5981475;29;20227;-75
2021/07/16 02:29:50;;;;;;;2.53;2.05;;;;;;;22.26;73.14;101658.47;5981422;29;20256;-76
2021/07/16 02:32:55;;;;;;;2.20;2.13;;;;;;;22.29;72.64;101663.50;5982001;29;20241;-75
2021/07/16 02:36:00;;;;;;;1.98;1.88;;;;;;;22.26;71.99;101664.03;5981308;29;20201;-75
2021/07/16 02:39:05;;;;;;;2.15;2.00;;;;;;;22.15;71.89;101672.63;5980405;29;20216;-75
2021/07/16 02:42:12;;;;;;;2.03;1.90;;;;;;;22.10;71.36;101669.84;5981084;29;20193;-75
2021/07/16 02:45:17;;;;;;;2.50;1.95;;;;;;;21.92;71.38;101656.44;5980950;29;20200;-76
2021/07/16 02:48:21;;;;;;;3.05;1.77;;;;;;;21.88;71.99;101670.03;5980779;29;20260;-75
2021/07/16 02:51:26;;;;;;;2.80;1.80;;;;;;;21.83;70.85;101675.53;5979903;29;20386;-75
2021/07/16 02:54:30;;;;;;;2.10;1.92;;;;;;;21.76;70.67;101686.91;5980060;29;20275;-75
2021/07/16 02:57:36;;;;;;;1.75;1.60;;;;;;;21.80;70.52;101688.03;5980681;29;20277;-75
2021/07/16 03:00:41;;;;;;;1.85;1.75;;;;;;;21.93;70.30;101697.84;5979795;29;20224;-75
2021/07/16 03:03:45;;;;;;;2.03;1.92;;;;;;;21.71;70.31;101699.94;5980875;29;20283;-75
2021/07/16 03:06:49;;;;;;;2.45;1.88;;;;;;;21.75;70.50;101706.63;5980807;29;20236;-75
2021/07/16 03:09:53;;;;;;;2.00;1.90;;;;;;;21.62;70.53;101715.44;5980419;29;20487;-75
2021/07/16 03:13:01;;;;;;;2.55;1.98;;;;;;;21.69;70.14;101704.94;5981051;29;20224;-75
2021/07/16 03:16:06;;;;;;;2.50;1.77;;;;;;;21.63;69.84;101715.16;5980829;29;20197;-75
2021/07/16 03:19:10;;;;;;;3.22;1.90;;;;;;;21.63;69.41;101725.44;5978825;29;20547;-75
2021/07/16 03:22:14;;;;;;;1.60;1.60;;;;;;;21.57;69.05;101735.66;5980364;29;20200;-75
2021/07/16 03:25:20;;;;;;;2.20;2.10;;;;;;;21.63;69.33;101737.38;5980739;29;20283;-75
2021/07/16 03:28:25;;;;;;;3.30;1.95;;;;;;;21.65;68.82;101728.78;5980323;29;20225;-75
2021/07/16 03:31:30;;;;;;;2.05;1.95;;;;;;;21.60;68.88;101750.97;5980607;29;20199;-75
2021/07/16 03:34:34;;;;;;;1.98;1.98;;;;;;;21.55;69.29;101739.81;5980417;29;20193;-75
2021/07/16 03:37:39;;;;;;;1.95;1.85;;;;;;;21.60;68.54;101746.25;5979946;29;20218;-75
2021/07/16 03:40:43;;;;;;;1.77;1.65;;;;;;;21.53;68.87;101737.31;5979401;29;20289;-75
2021/07/16 03:43:49;;;;;;;4.80;2.20;;;;;;;21.40;68.54;101748.06;5980453;29;20224;-75
2021/07/16 03:46:59;;;;;;;3.90;2.17;;;;;;;21.41;68.72;101755.28;5980340;29;20288;-75
2021/07/16 03:50:04;;;;;;;3.22;2.03;;;;;;;21.46;68.03;101733.97;5979696;29;20208;-75
2021/07/16 03:53:08;;;;;;;1.88;1.88;;;;;;;21.40;67.82;101759.16;5980026;29;20192;-77
2021/07/16 03:56:13;;;;;;;7.38;2.53;;;;;;;21.60;67.32;101748.19;5978994;29;20445;-75
2021/07/16 03:59:18;;;;;;;5.35;2.22;;;;;;;21.44;67.99;101754.75;5980264;29;20201;-76
2021/07/16 04:02:22;;;;;;;6.35;2.40;;;;;;;21.48;67.83;101761.44;5979808;29;20253;-75
2021/07/16 04:05:30;;;;;;;4.75;2.22;;;;;;;21.21;67.92;101762.34;5980098;29;20200;-75
2021/07/16 04:08:35;;;;;;;2.53;2.42;;;;;;;21.26;68.21;101766.28;5980031;29;20265;-75
2021/07/16 04:11:40;;;;;;;2.83;2.25;;;;;;;21.38;67.27;101758.59;5979980;29;20193;-75
2021/07/16 04:14:47;;;;;;;3.03;2.25;;;;;;;21.45;67.65;101767.53;5980118;29;20268;-75
2021/07/16 04:17:51;;;;;;;4.97;2.10;;;;;;;21.30;67.47;101770.19;5978746;29;20454;-74
2021/07/16 04:20:56;;;;;;;2.40;2.20;;;;;;;21.46;67.07;101763.66;5979638;29;20199;-75
2021/07/16 04:24:00;;;;;;;4.28;2.55;;;;;;;21.54;66.35;101777.88;5978743;29;20193;-75
2021/07/16 04:27:06;;;;;;;3.60;2.60;;;;;;;21.50;66.36;101770.34;5979909;29;20221;-75
2021/07/16 04:30:14;;;;;;;2.30;2.10;;;;;;;21.51;65.90;101778.41;5978702;29;20193;-74
2021/07/16 04:33:19;;;;;;;2.80;2.13;;;;;;;21.40;65.58;101781.38;5978465;29;20208;-74
2021/07/16 04:36:23;;;;;;;3.70;2.28;;;;;;;21.32;65.84;101787.41;5979487;29;20226;-74
2021/07/16 04:39:28;;;;;;;2.83;2.58;;;;;;;21.45;65.74;101798.06;5978220;29;20209;-74
2021/07/16 04:42:32;;;;;;;2.70;1.77;;;;;;;21.40;64.51;101809.13;5978554;29;20197;-75
2021/07/16 04:45:38;;;;;;;2.10;2.00;;;;;;;21.39;64.37;101799.16;5980222;29;20193;-75
2021/07/16 04:48:42;;;;;;;3.00;2.20;;;;;;;21.55;64.55;101807.31;5982908;29;20220;-75
2021/07/16 04:51:46;;;;;;;2.20;2.10;;;;;;;21.60;64.32;101810.13;5983535;29;20273;-75
2021/07/16 04:54:50;;;;;;;2.60;2.22;;;;;;;21.56;63.10;101808.16;5982520;29;20543;-75
2021/07/16 04:57:55;;;;;;;1.98;1.88;;;;;;;21.50;63.19;101812.81;5982441;29;20219;-75
2021/07/16 05:01:00;;;;;;;4.35;2.35;;;;;;;21.57;63.19;101804.28;5983628;29;20264;-76
2021/07/16 05:04:05;;;;;;;2.50;2.35;;;;;;;21.51;62.21;101802.56;5982594;29;20430;-75
2021/07/16 05:07:11;;;;;;;2.10;1.95;;;;;;;21.49;61.17;101813.09;5984103;29;20227;-75
2021/07/16 05:10:16;;;;;;;2.63;1.90;;;;;;;21.56;61.21;101825.66;5983309;29;20307;-75
2021/07/16 05:13:20;;;;;;;6.25;1.73;;;;;;;21.56;60.77;101825.66;5982957;29;20200;-75
2021/07/16 05:16:26;;;;;;;2.58;1.63;;;;;;;21.52;59.41;101835.59;5982869;29;20234;-75
2021/07/16 05:19:33;;;;;;;2.10;1.58;;;;;;;21.47;59.34;101832.78;5981098;29;20464;-75
2021/07/16 05:22:39;;;;;;;1.70;1.58;;;;;;;21.42;59.21;101840.22;5982669;29;20194;-75
2021/07/16 05:25:43;;;;;;;2.30;1.65;;;;;;;21.42;58.17;101845.78;5982870;29;20193;-75
2021/07/16 05:28:49;;;;;;;4.13;1.63;;;;;;;21.53;57.74;101836.44;5981235;29;20278;-75
2021/07/16 05:31:55;;;;;;;2.13;1.58;;;;;;;21.42;56.97;101834.69;5980632;29;20281;-75
2021/07/16 05:34:59;;;;;;;1.60;1.60;;;;;;;21.57;56.56;101843.97;5982598;29;20179;-75
2021/07/16 05:38:04;;;;;;;2.70;1.45;;;;;;;21.57;56.65;101851.50;5982785;29;20201;-75
2021/07/16 05:41:09;;;;;;;1.70;1.60;;;;;;;21.82;55.88;101857.22;5982660;29;20277;-75
2021/07/16 05:44:13;;;;;;;5.90;1.55;;;;;;;21.91;54.72;101850.09;5981177;29;20273;-75
2021/07/16 05:47:20;;;;;;;4.10;1.60;;;;;;;21.99;54.42;101841.25;5982480;29;20220;-75
2021/07/16 05:50:24;;;;;;;5.65;1.80;;;;;;;21.95;53.47;101855.94;5982352;29;20200;-75
2021/07/16 05:53:29;;;;;;;1.50;1.50;;;;;;;21.88;53.11;101867.28;5982456;29;20192;-75
2021/07/16 05:56:35;;;;;;;2.08;1.70;;;;;;;22.04;52.82;101866.28;5982145;29;20278;-75
2021/07/16 05:59:39;;;;;;;4.93;1.73;;;;;;;22.20;54.18;101870.84;5982338;29;20200;-75
2021/07/16 06:02:45;;;;;;;3.28;1.45;;;;;;;22.27;53.44;101877.00;5980341;29;20276;-75
2021/07/16 06:05:49;;;;;;;2.08;1.48;;;;;;;22.47;53.31;101892.13;5982192;29;20224;-75
2021/07/16 06:08:54;;;;;;;2.85;1.52;;;;;;;22.38;52.84;101872.31;5980685;29;20550;-76
2021/07/16 06:12:00;;;;;;;1.70;1.40;;;;;;;22.54;52.57;101876.00;5980794;29;20193;-76
2021/07/16 06:15:06;;;;;;;2.25;1.50;;;;;;;22.53;52.75;101879.88;5981945;29;20193;-76
2021/07/16 06:18:17;;;;;;;1.75;1.70;;;;;;;22.52;51.59;101883.78;5980574;29;20196;-76
2021/07/16 06:21:21;;;;;;;3.28;1.10;;;;;;;22.65;52.00;101883.34;5981413;29;20193;-75
2021/07/16 06:24:25;;;;;;;1.77;1.65;;;;;;;22.54;51.58;101887.13;5981703;29;20228;-75
2021/07/16 06:27:32;;;;;;;3.92;1.70;;;;;;;22.43;52.33;101864.84;5980709;29;20422;-76
2021/07/16 06:30:38;;;;;;;1.52;1.50;;;;;;;22.49;52.53;101878.78;5980168;29;20205;-76
2021/07/16 06:33:43;;;;;;;3.33;1.38;;;;;;;22.60;52.27;101880.50;5979104;29;20209;-75
2021/07/16 06:36:47;;;;;;;2.65;1.95;;;;;;;22.79;51.64;101878.91;5981079;29;20200;-75
2021/07/16 06:39:52;;;;;;;4.18;1.88;;;;;;;22.64;52.15;101876.09;5980340;29;20203;-76
2021/07/16 06:42:56;;;;;;;3.67;1.60;;;;;;;22.66;51.37;101884.97;5979856;29;20492;-76
2021/07/16 06:46:00;;;;;;;2.28;1.50;;;;;;;22.71;52.10;101887.78;5980261;29;20250;-76
2021/07/16 06:49:09;;;;;;;2.83;1.52;;;;;;;22.69;51.16;101901.13;5980669;29;20331;-75
2021/07/16 06:52:16;;;;;;;3.30;1.60;;;;;;;22.59;50.94;101901.91;5980861;29;20193;-76
2021/07/16 06:55:20;;;;;;;4.13;1.60;;;;;;;22.53;50.94;101902.13;5981077;29;20225;-76
2021/07/16 06:58:24;;;;;;;3.17;1.48;;;;;;;22.77;51.53;101900.63;5979981;29;20201;-75
2021/07/16 07:01:28;;;;;;;1.67;1.58;;;;;;;22.84;51.20;101903.97;5980603;29;20199;-76
2021/07/16 07:04:38;;;;;;;1.33;1.25;;;;;;;22.94;50.76;101909.56;5981391;29;20236;-75
2021/07/16 07:07:44;;;;;;;3.25;1.35;;;;;;;23.09;50.16;101906.81;5979319;29;20420;-76
2021/07/16 07:10:49;;;;;;;2.08;1.60;;;;;;;22.88;49.69;101907.91;5979859;29;20532;-75
2021/07/16 07:13:53;;;;;;;1.75;1.50;;;;;;;22.84;49.45;101915.94;5980546;29;20200;-75
2021/07/16 07:16:57;;;;;;;3.42;1.50;;;;;;;22.99;50.14;101915.16;5980408;29;20200;-75
2021/07/16 07:20:06;;;;;;;2.05;1.73;;;;;;;23.11;50.23;101904.63;5980241;29;20204;-76
2021/07/16 07:23:15;;;;;;;4.05;1.40;;;;;;;23.19;49.12;101917.97;5979132;29;20487;-75
2021/07/16 07:26:22;;;;;;;1.52;1.40;;;;;;;23.10;48.98;101916.88;5980713;29;20193;-76
2021/07/16 07:29:27;;;;;;;2.08;1.20;;;;;;;23.07;48.55;101914.63;5978986;29;20350;-75
2021/07/16 07:32:31;;;;;;;2.65;1.40;;;;;;;23.31;48.83;101921.38;5980170;29;20306;-76
2021/07/16 07:35:36;;;;;;;3.38;1.60;;;;;;;23.36;48.15;101924.19;5978816;29;20496;-75
2021/07/16 07:38:41;;;;;;;1.80;1.67;;;;;;;23.39;47.89;101932.00;5978888;29;20258;-76
2021/07/16 07:41:46;;;;;;;3.88;1.40;;;;;;;23.46;48.07;101935.34;5979835;29;20263;-76
2021/07/16 07:44:50;;;;;;;3.17;1.40;;;;;;;23.43;48.27;101935.91;5979012;29;20391;-76
2021/07/16 07:47:54;;;;;;;3.38;1.48;;;;;;;23.52;48.90;101928.66;5980087;29;20224;-76
2021/07/16 07:51:00;;;;;;;5.85;1.67;;;;;;;23.47;48.56;101925.06;5978888;29;20422;-75
2021/07/16 07:54:07;;;;;;;3.33;1.30;;;;;;;23.51;47.97;101932.56;5980192;29;20199;-76
2021/07/16 07:57:13;;;;;;;3.58;1.58;;;;;;;23.60;48.25;101938.41;5978744;29;20193;-76
2021/07/16 08:00:21;;;;;;;3.40;1.40;;;;;;;23.53;47.38;101933.13;5979672;29;20271;-76
2021/07/16 08:03:25;;;;;;;6.22;1.60;;;;;;;23.78;47.59;101937.06;5977541;29;20236;-76
2021/07/16 08:06:31;;;;;;;1.40;1.40;;;;;;;23.72;47.49;101949.31;5980066;29;20193;-76
2021/07/16 08:09:35;;;;;;;2.95;1.45;;;;;;;23.74;47.96;101935.91;5978755;29;20397;-76
2021/07/16 08:12:41;;;;;;;2.08;1.60;;;;;;;23.67;46.66;101936.22;5978655;29;20193;-76
2021/07/16 08:15:46;;;;;;;1.60;1.50;;;;;;;23.73;47.02;101945.41;5978621;29;20369;-75
2021/07/16 08:18:50;;;;;;;3.30;1.83;;;;;;;23.64;45.73;101948.75;5979648;29;20228;-76
2021/07/16 08:21:55;;;;;;;4.57;1.60;;;;;;;23.64;45.63;101937.59;5982192;29;20258;-76
2021/07/16 08:25:00;;;;;;;2.50;1.60;;;;;;;23.66;45.33;101943.72;5982916;29;20424;-76
2021/07/16 08:28:07;;;;;;;2.38;1.58;;;;;;;23.77;45.02;101946.50;5983933;29;20193;-75
2021/07/16 08:31:12;;;;;;;2.42;1.50;;;;;;;23.72;45.05;101950.16;5982258;29;20274;-76
2021/07/16 08:34:16;;;;;;;2.35;1.73;;;;;;;23.46;45.12;101943.72;5983583;29;20260;-75
2021/07/16 08:37:22;;;;;;;2.38;1.58;;;;;;;23.56;45.31;101946.50;5982482;29;20242;-76
2021/07/16 08:40:26;;;;;;;1.63;1.52;;;;;;;23.47;44.74;101956.50;5983437;29;20204;-76
2021/07/16 08:43:35;;;;;;;4.43;1.70;;;;;;;23.28;45.16;101966.47;5983655;29;20231;-75
2021/07/16 08:46:39;;;;;;;1.77;1.65;;;;;;;23.44;45.98;101965.44;5983330;29;20265;-76
2021/07/16 08:49:44;;;;;;;1.60;1.60;;;;;;;23.69;46.22;101956.25;5983322;29;20267;-75
2021/07/16 08:52:56;;;;;;;2.80;1.90;;;;;;;23.67;46.56;101961.28;5985170;29;20193;-76
2021/07/16 08:56:00;;;;;;;6.07;1.60;;;;;;;23.78;46.07;101964.91;5983425;29;20242;-76
2021/07/16 08:59:09;;;;;;;4.63;1.70;;;;;;;23.58;46.51;101971.28;5982488;29;20589;-76
2021/07/16 09:02:17;;;;;;;10.70;2.08;;;;;;;23.60;46.76;101980.19;5982907;29;20244;-76
2021/07/16 09:05:32;;;;;;;3.50;1.42;;;;;;;23.62;46.49;101973.22;5983186;29;20234;-76
2021/07/16 09:08:37;;;;;;;5.20;1.60;;;;;;;23.77;46.05;101985.53;5983414;29;20224;-76
2021/07/16 09:11:43;;;;;;;2.00;1.88;;;;;;;23.78;46.19;101979.66;5981987;29;20221;-77
2021/07/16 09:14:47;;;;;;;4.00;2.00;;;;;;;23.82;45.88;101983.59;5982361;29;20193;-76
2021/07/16 09:17:53;;;;;;;1.70;1.58;;;;;;;23.76;45.99;101995.00;5984386;29;20264;-76
2021/07/16 09:21:09;;;;;;;3.40;1.67;;;;;;;23.71;45.85;101989.41;5981969;29;20555;-74
2021/07/16 09:24:25;;;;;;;4.13;1.77;;;;;;;23.68;46.19;101988.84;5982857;29;20193;-76
2021/07/16 09:27:34;;;;;;;1.92;1.83;;;;;;;23.72;45.91;101993.88;5982949;29;20256;-76
2021/07/16 09:30:39;;;;;;;7.05;1.95;;;;;;;23.65;47.09;102005.31;5982743;29;20221;-77
2021/07/16 09:33:48;;;;;;;3.00;1.75;;;;;;;23.57;47.23;101983.56;5982307;29;20193;-76
2021/07/16 09:36:53;;;;;;;3.40;1.83;;;;;;;23.73;47.13;101992.78;5982797;29;20268;-76
2021/07/16 09:40:00;;;;;;;3.33;1.70;;;;;;;23.68;46.75;101994.44;5981457;29;20487;-76
2021/07/16 09:43:07;;;;;;;2.20;2.00;;;;;;;23.79;47.54;101994.44;5982589;29;20260;-76
2021/07/16 09:46:14;;;;;;;6.65;2.40;;;;;;;23.84;47.32;101997.22;5981170;29;20543;-74
2021/07/16 09:49:18;;;;;;;4.15;1.80;;;;;;;23.64;46.98;102001.69;5982214;29;20197;-76
2021/07/16 09:52:22;;;;;;;9.38;2.03;;;;;;;23.59;47.21;102018.38;5981224;29;20276;-76
2021/07/16 09:55:30;;;;;;;3.55;1.80;;;;;;;23.62;46.79;102023.38;5981024;29;20530;-75
2021/07/16 09:58:36;;;;;;;7.30;1.80;;;;;;;23.61;46.17;102032.03;5981111;29;20524;-75
2021/07/16 10:01:42;;;;;;;2.50;1.90;;;;;;;23.57;45.65;102028.13;5981767;29;20209;-76
2021/07/16 10:04:49;;;;;;;1.70;1.60;;;;;;;23.38;46.06;102011.09;5982294;29;20193;-77
2021/07/16 10:07:53;;;;;;;8.45;1.80;;;;;;;23.42;46.37;102023.34;5981140;29;20219;-75
2021/07/16 10:11:04;;;;;;;1.90;1.80;;;;;;;23.37;46.31;102030.88;5980699;29;20221;-76
2021/07/16 10:14:14;;;;;;;5.20;2.25;;;;;;;23.04;46.40;102020.94;5981549;29;20197;-75
2021/07/16 10:17:19;;;;;;;2.78;1.90;;;;;;;22.80;47.09;102022.50;5981712;29;20375;-76
2021/07/16 10:20:23;;;;;;;1.98;1.80;;;;;;;22.78;47.16;102008.00;5981325;29;20197;-75
2021/07/16 10:23:30;;;;;;;1.60;1.50;;;;;;;22.81;47.43;102002.75;5981625;29;20200;-75
2021/07/16 10:26:36;;;;;;;1.90;1.80;;;;;;;22.76;48.41;102015.78;5981343;29;20197;-75
2021/07/16 10:29:43;;;;;;;3.70;1.80;;;;;;;22.94;47.48;102006.97;5980919;29;20225;-75
2021/07/16 10:32:50;;;;;;;4.50;2.00;;;;;;;23.06;47.09;101999.22;5980239;29;20389;-76
2021/07/16 10:35:54;;;;;;;7.22;1.85;;;;;;;23.30;46.71;102003.22;5981188;29;20193;-75
2021/07/16 10:38:59;;;;;;;4.68;1.73;;;;;;;23.30;46.74;102007.94;5981531;29;20201;-75
2021/07/16 10:42:43;;;;;;;2.47;1.55;;;;;;;23.42;46.02;102001.06;5980048;29;20532;-75
2021/07/16 10:45:48;;;;;;;1.75;1.63;;;;;;;23.42;44.86;102000.25;5978555;29;20232;-75
2021/07/16 10:48:53;;;;;;;3.95;1.70;;;;;;;23.40;45.30;102000.50;5979895;29;20440;-75
2021/07/16 10:52:05;;;;;;;6.05;1.63;;;;;;;23.32;46.38;102006.56;5980784;29;20220;-75
2021/07/16 10:55:13;;;;;;;6.22;1.95;;;;;;;23.47;45.95;102003.84;5980128;29;20272;-75
2021/07/16 10:58:19;;;;;;;1.77;1.60;;;;;;;23.43;45.55;102013.03;5980842;29;20200;-75
2021/07/16 11:01:32;;;;;;;3.47;2.00;;;;;;;23.35;45.88;102022.72;5980859;29;20228;-75
2021/07/16 11:04:37;;;;;;;1.75;1.50;;;;;;;23.37;45.59;102014.97;5979771;29;20551;-75
2021/07/16 11:07:42;;;;;;;3.17;2.00;;;;;;;23.44;45.78;102004.44;5979889;29;20200;-74
2021/07/16 11:10:50;;;;;;;5.57;2.10;;;;;;;23.51;45.35;101998.56;5980613;29;20217;-75
2021/07/16 11:13:59;;;;;;;5.30;1.85;;;;;;;23.67;45.62;102003.06;5980571;29;20193;-75
2021/07/16 11:17:06;;;;;;;3.10;1.65;;;;;;;23.50;44.92;102019.19;5980839;29;20265;-75
2021/07/16 11:20:15;;;;;;;7.47;1.88;;;;;;;23.64;44.86;102007.25;5980023;29;20228;-74
2021/07/16 11:23:20;;;;;;;1.58;1.40;;;;;;;23.65;44.73;102011.69;5979920;29;20198;-75
2021/07/16 11:26:24;;;;;;;4.47;1.70;;;;;;;23.36;45.12;102007.75;5979814;29;20200;-75
2021/07/16 11:29:34;;;;;;;4.07;1.88;;;;;;;23.52;45.33;102012.22;5980137;29;20193;-76
2021/07/16 11:32:40;;;;;;;2.75;1.95;;;;;;;23.60;45.25;102014.47;5978905;29;20224;-75
2021/07/16 11:35:50;;;;;;;2.47;1.77;;;;;;;23.78;45.51;102007.53;5979976;29;20193;-75
2021/07/16 11:38:55;;;;;;;3.85;1.70;;;;;;;23.94;45.08;102002.81;5980285;29;20193;-75
2021/07/16 11:41:59;;;;;;;2.13;1.80;;;;;;;23.73;44.16;102013.09;5980008;29;20203;-75
2021/07/16 11:45:10;;;;;;;2.30;2.08;;;;;;;23.75;44.24;102010.06;5979233;29;20219;-75
2021/07/16 11:48:17;;;;;;;4.78;2.15;;;;;;;23.85;44.72;102021.22;5979327;29;20468;-75
2021/07/16 11:51:27;;;;;;;2.53;1.83;;;;;;;23.84;44.95;102008.38;5980035;29;20289;-75
2021/07/16 11:54:32;;;;;;;1.88;1.77;;;;;;;23.84;44.98;102002.81;5979305;29;20425;-75
2021/07/16 11:57:46;;;;;;;4.30;1.98;;;;;;;24.00;45.32;102008.13;5984676;29;20193;-74
2021/07/16 12:00:55;;;;;;;2.60;2.00;;;;;;;24.02;44.29;102007.84;5984570;29;20225;-75
2021/07/16 12:04:02;;;;;;;2.38;2.28;;;;;;;23.95;44.71;102004.50;5983075;29;20334;-75
2021/07/16 12:07:07;;;;;;;4.47;1.98;;;;;;;24.12;44.40;102002.28;5984177;29;20225;-75
2021/07/16 12:10:14;;;;;;;3.53;2.33;;;;;;;24.28;44.33;102009.53;5983139;29;20204;-75
2021/07/16 12:13:19;;;;;;;6.15;2.03;;;;;;;24.40;44.48;101996.13;5984456;29;20224;-75
2021/07/16 12:16:25;;;;;;;2.35;2.08;;;;;;;24.45;45.41;102003.63;5984025;29;20197;-75
2021/07/16 12:19:30;;;;;;;2.17;2.03;;;;;;;24.32;43.91;101996.69;5983981;29;20274;-75
2021/07/16 12:22:36;;;;;;;3.83;2.17;;;;;;;24.47;44.34;101996.69;5983837;29;20201;-75
2021/07/16 12:25:42;;;;;;;2.67;2.00;;;;;;;24.41;43.69;101989.44;5983572;29;20200;-75
2021/07/16 12:28:48;;;;;;;1.92;1.83;;;;;;;24.64;43.54;101991.63;5984241;29;20231;-75
2021/07/16 12:31:56;;;;;;;2.45;2.10;;;;;;;24.84;43.30;101990.75;5983611;29;20290;-74
2021/07/16 12:35:12;;;;;;;3.22;2.10;;;;;;;24.78;42.65;101992.72;5982565;29;20266;-75
2021/07/16 12:38:18;;;;;;;2.60;2.28;;;;;;;24.85;42.78;101990.47;5983614;29;20257;-75
2021/07/16 12:41:23;;;;;;;2.22;2.13;;;;;;;25.01;41.79;101985.66;5984308;29;20270;-75
2021/07/16 12:44:29;;;;;;;4.40;2.25;;;;;;;25.08;40.96;101985.34;5982889;29;20405;-74
2021/07/16 12:47:46;;;;;;;2.22;1.92;;;;;;;25.23;41.29;101974.09;5984069;29;20204;-74
2021/07/16 12:50:54;;;;;;;3.90;2.00;;;;;;;25.23;41.24;101982.47;5983569;29;20225;-75
2021/07/16 12:53:59;;;;;;;3.88;2.25;;;;;;;25.21;42.23;101981.94;5983316;29;20283;-75
2021/07/16 12:57:18;;;;;;;2.00;1.90;;;;;;;25.18;41.98;101968.53;5983762;29;20224;-74
2021/07/16 13:00:27;;;;;;;3.65;1.70;;;;;;;25.26;41.85;101970.72;5983892;29;20193;-75
2021/07/16 13:03:39;;;;;;;4.90;2.20;;;;;;;25.17;41.61;101983.63;5983607;29;20448;-75
2021/07/16 13:06:48;;;;;;;2.47;2.38;;;;;;;25.16;42.03;101981.97;5982316;29;20193;-75
2021/07/16 13:09:52;;;;;;;2.13;2.00;;;;;;;25.27;41.14;101958.44;5982803;29;20480;-75
2021/07/16 13:13:03;;;;;;;1.83;1.73;;;;;;;25.04;40.03;101964.72;5983550;29;20221;-76
2021/07/16 13:16:18;;;;;;;5.10;2.00;;;;;;;25.17;40.04;101962.13;5983783;29;20202;-75
2021/07/16 13:19:27;;;;;;;3.00;2.00;;;;;;;25.15;40.97;101952.34;5997560;29;20216;-74
2021/07/16 13:22:33;;;;;;;2.10;2.00;;;;;;;25.07;41.99;101955.75;5983389;29;20268;-74
2021/07/16 13:25:37;;;;;;;2.92;2.03;;;;;;;25.27;42.13;101961.25;5982849;29;20448;-74
2021/07/16 13:28:43;;;;;;;9.43;2.20;;;;;;;25.28;41.86;101946.97;5983456;29;20256;-75
2021/07/16 13:31:47;;;;;;;2.92;2.40;;;;;;;25.31;42.05;101962.31;5982817;29;20193;-75
2021/07/16 13:34:54;;;;;;;3.92;2.05;;;;;;;25.39;41.86;101956.13;5982337;29;20269;-75
2021/07/16 13:38:00;;;;;;;3.05;2.50;;;;;;;25.42;41.73;101959.16;5983034;29;20225;-75
2021/07/16 13:41:08;;;;;;;2.40;2.20;;;;;;;25.71;41.43;101961.22;5982250;29;20376;-76
2021/07/16 13:44:12;;;;;;;3.85;2.33;;;;;;;26.54;40.07;101959.09;5982066;29;20483;-76
2021/07/16 13:47:18;;;;;;;3.72;1.70;;;;;;;28.06;37.13;101958.69;5982766;29;20220;-76
2021/07/16 13:50:24;;;;;;;4.38;2.20;;;;;;;28.54;34.96;101953.56;5982856;29;20235;-76
2021/07/16 13:53:31;;;;;;;2.47;2.28;;;;;;;28.13;36.14;101945.06;5982435;29;20220;-75
2021/07/16 13:56:36;;;;;;;3.22;2.40;;;;;;;28.75;35.10;101942.78;5982340;29;20193;-75
2021/07/16 13:59:40;;;;;;;2.75;2.25;;;;;;;29.41;33.09;101943.00;5981261;29;20240;-75
2021/07/16 14:02:48;;;;;;;2.28;2.10;;;;;;;29.93;33.15;101940.63;5981265;29;20358;-76
2021/07/16 14:05:53;;;;;;;2.60;1.92;;;;;;;30.59;32.12;101926.44;5981743;29;20216;-76
2021/07/16 14:08:57;;;;;;;2.28;2.17;;;;;;;29.86;33.19;101929.84;5982114;29;20438;-75
2021/07/16 14:12:05;;;;;;;2.50;2.30;;;;;;;29.03;34.51;101927.56;5981640;29;20456;-75
2021/07/16 14:15:12;;;;;;;1.90;1.90;;;;;;;28.39;35.00;101926.63;5981846;29;20208;-75
2021/07/16 14:18:16;;;;;;;3.83;2.08;;;;;;;28.04;35.26;101937.69;5982608;29;20193;-74
2021/07/16 14:21:23;;;;;;;2.65;2.50;;;;;;;27.85;35.91;101935.72;5980389;29;20481;-76
2021/07/16 14:24:28;;;;;;;6.43;2.30;;;;;;;27.69;36.64;101939.06;5980859;29;20197;-77